Accueil
METAR-TAF:

METAR-TAF

Aéroports :

Aéroport international du Caire

Le Caire, Égypte

latitude: 30-08N, longitude: 031-24E, altitude: 64 m

Observation

Le bulletin a été fait il y a 8 minutes, à 18:00 UTC
Vent 16 kt de nord/nord-est
Température 29°C
Humidité 66%
Pression 1010 hPa
Visibilité 10 km ou plus
pas de nuages en-dessous de 1500 mètres et pas de cumulonimbus.

METAR: HECA 191800Z 02016KT CAVOK 29/22 Q1010 NOSIG

Heure: 20:08 (18:08 UTC)

Prévision

Le bulletin a été fait il y a 1 heure et 8 minutes, à 17:00 UTC
Prévision valable du 19 à 18 UTC au 20 à 24 UTC
Vent 9 kt de nord-est
Visibilité 10 km ou plus
pas de nuages en-dessous de 1500 mètres et pas de cumulonimbus.
Temporairement
du 19 à 18 UTC au 19 à 24 UTC
Vent 15 kt de nord-est avec des rafales jusqu'à 30 kt
Temporairement
du 20 à 02 UTC au 20 à 06 UTC
Visibilité: 4000 m
brume

TAF: HECA 191700Z 1918/2024 04009KT CAVOK TEMPO 1918/1924 04015G30KT TEMPO 2002/2006 4000 BR NSC

Observations et prévisions météorologiques de plus de 4000 aéroports (messages METAR et TAF).

Les stations disponibles sont représentées par des disques jaunes et rouges sur la carte.

Passer la souris dessus pour voir le nom de la station.

Cliquer dessus pour voir les observations et prévisions météorologiques.

Pour changer de carte: cliquez sur les boutons verts avec une croix noire pour zoomer, sur le bouton vert avec un tiret pour effectuer un zoom arrière, ou sur les flèches vertes pour les cartes adjacentes.


METAR-TAF: